Time;durP1;ratioP1;P1;durP2;ratioP2;P2;SDS_P1;SDS_P2;PMS_P1;PMS_P2;Temp;Humidity;BMP_temperature;BMP_pressure;BME280_temperature;BME280_humidity;BME280_pressure;Samples;Min_cycle;Max_cycle;Signal;HPM_P1;HPM_P2
2022/12/31 00:01:02;;;;;;;1.43;1.33;;;12.60;99.90;;;;;;5035414;28;20428;-40
2022/12/31 00:03:27;;;;;;;0.80;0.80;;;12.60;99.90;;;;;;5048633;28;20544;-39
2022/12/31 00:05:53;;;;;;;1.70;1.60;;;12.60;99.90;;;;;;5033709;28;20464;-38
2022/12/31 00:08:19;;;;;;;0.70;0.70;;;12.60;99.90;;;;;;5047917;28;20532;-41
2022/12/31 00:10:44;;;;;;;0.87;0.60;;;12.60;99.90;;;;;;5043489;28;20178;-38
2022/12/31 00:13:11;;;;;;;0.80;0.70;;;12.60;99.90;;;;;;5035915;28;20841;-38
2022/12/31 00:15:38;;;;;;;0.90;0.73;;;12.60;99.90;;;;;;5032454;28;20178;-40
2022/12/31 00:18:04;;;;;;;0.90;0.77;;;12.60;99.90;;;;;;5039472;28;20425;-41
2022/12/31 00:20:30;;;;;;;1.03;0.80;;;12.60;99.90;;;;;;5047841;28;20431;-40
2022/12/31 00:22:55;;;;;;;0.70;0.70;;;12.60;99.90;;;;;;5049195;28;20576;-40
2022/12/31 00:25:21;;;;;;;0.97;0.80;;;12.60;99.90;;;;;;5044999;28;20433;-41
2022/12/31 00:27:47;;;;;;;2.23;0.90;;;12.60;99.90;;;;;;5030665;28;20184;-39
2022/12/31 00:30:13;;;;;;;1.07;0.87;;;12.60;99.90;;;;;;5030146;28;20415;-38
2022/12/31 00:32:39;;;;;;;0.80;0.63;;;12.70;99.90;;;;;;5030698;28;20190;-36
2022/12/31 00:35:05;;;;;;;1.60;0.80;;;12.70;99.90;;;;;;5029867;28;20428;-39
2022/12/31 00:37:31;;;;;;;0.97;0.80;;;12.60;99.90;;;;;;5030931;28;20737;-38
2022/12/31 00:39:56;;;;;;;0.93;0.77;;;12.70;99.90;;;;;;5030357;28;20421;-40
2022/12/31 00:42:22;;;;;;;0.80;0.70;;;12.70;99.90;;;;;;5042026;28;20186;-37
2022/12/31 00:44:48;;;;;;;1.00;0.60;;;12.70;99.90;;;;;;5031229;28;20182;-37
2022/12/31 00:47:14;;;;;;;0.93;0.90;;;12.70;99.90;;;;;;5029850;28;20230;-41
2022/12/31 00:49:39;;;;;;;1.80;0.90;;;12.70;99.90;;;;;;5030301;28;20186;-35
2022/12/31 00:52:05;;;;;;;1.00;0.83;;;12.60;99.90;;;;;;5030145;28;20209;-35
2022/12/31 00:54:31;;;;;;;1.20;1.10;;;12.60;99.90;;;;;;5029934;28;20270;-41
2022/12/31 00:56:56;;;;;;;1.70;1.20;;;12.60;99.90;;;;;;5030242;28;20584;-41
2022/12/31 00:59:22;;;;;;;1.20;1.00;;;12.60;99.90;;;;;;5028638;28;20656;-41
2022/12/31 01:01:48;;;;;;;1.30;1.20;;;12.60;99.90;;;;;;5030324;28;20194;-35
2022/12/31 01:04:19;;;;;;;1.70;1.10;;;12.60;99.90;;;;;;5029253;28;20221;-39
2022/12/31 01:06:45;;;;;;;1.20;1.10;;;12.50;99.90;;;;;;5030165;28;20457;-37
2022/12/31 01:09:13;;;;;;;2.40;1.00;;;12.50;99.90;;;;;;5029394;28;20456;-38
2022/12/31 01:11:41;;;;;;;1.20;1.00;;;12.50;99.90;;;;;;5030104;28;20503;-38
2022/12/31 01:14:13;;;;;;;1.43;1.17;;;12.50;99.90;;;;;;5028813;28;21192;-40
2022/12/31 01:16:44;;;;;;;0.70;0.70;;;12.50;99.90;;;;;;5041907;28;20464;-40
2022/12/31 01:19:14;;;;;;;1.33;0.87;;;12.50;99.90;;;;;;5042487;28;20418;-38
2022/12/31 01:21:41;;;;;;;1.73;0.90;;;12.50;99.90;;;;;;5028118;28;20421;-35
2022/12/31 01:24:08;;;;;;;3.83;0.77;;;12.50;99.90;;;;;;5042318;28;20404;-37
2022/12/31 01:26:34;;;;;;;1.00;0.87;;;12.50;99.90;;;;;;5047415;28;20532;-39
2022/12/31 01:29:00;;;;;;;0.60;0.60;;;12.50;99.90;;;;;;5049878;28;20991;-41
2022/12/31 01:31:26;;;;;;;0.90;0.63;;;12.50;99.90;;;;;;5047744;28;20189;-38
2022/12/31 01:33:52;;;;;;;0.83;0.77;;;12.60;99.90;;;;;;5049108;28;20177;-41
2022/12/31 01:36:23;;;;;;;1.30;0.80;;;12.60;99.90;;;;;;5049427;28;20412;-38
2022/12/31 01:38:49;;;;;;;1.73;0.53;;;12.60;99.90;;;;;;5049566;28;20452;-41
2022/12/31 01:41:19;;;;;;;1.63;0.60;;;12.60;99.90;;;;;;5049361;28;20424;-38
2022/12/31 01:44:11;;;;;;;2.93;0.50;;;12.70;99.90;;;;;;5048365;28;20458;-39
2022/12/31 01:46:50;;;;;;;0.60;0.60;;;12.70;99.90;;;;;;5040350;28;20462;-39
2022/12/31 01:49:15;;;;;;;1.10;0.57;;;12.70;99.90;;;;;;5048765;28;20488;-41
2022/12/31 01:51:43;;;;;;;0.60;0.40;;;12.70;99.90;;;;;;5047553;28;20507;-41
2022/12/31 01:54:13;;;;;;;0.50;0.40;;;12.80;99.90;;;;;;5048220;28;20673;-40
2022/12/31 01:56:41;;;;;;;0.80;0.70;;;12.80;99.90;;;;;;5049063;28;20424;-40
2022/12/31 01:59:09;;;;;;;0.50;0.50;;;12.80;99.90;;;;;;5049046;28;20432;-37
2022/12/31 02:01:37;;;;;;;1.27;0.60;;;12.80;99.90;;;;;;5048900;28;20420;-37
2022/12/31 02:04:07;;;;;;;1.00;0.63;;;12.90;99.90;;;;;;5047891;28;20416;-41
2022/12/31 02:06:56;;;;;;;0.67;0.40;;;12.90;99.90;;;;;;5048702;28;20456;-40
2022/12/31 02:09:22;;;;;;;1.60;0.40;;;12.90;99.90;;;;;;5049281;28;20446;-39
2022/12/31 02:11:48;;;;;;;0.73;0.50;;;12.90;99.90;;;;;;5048808;28;20412;-40
2022/12/31 02:14:24;;;;;;;0.60;0.40;;;12.90;99.90;;;;;;5048111;28;20536;-36
2022/12/31 02:17:24;;;;;;;0.70;0.47;;;12.90;99.90;;;;;;5048566;28;20257;-40
2022/12/31 02:20:19;;;;;;;0.60;0.40;;;12.90;99.90;;;;;;5048240;28;20789;-41
2022/12/31 02:23:06;;;;;;;0.50;0.40;;;13.00;99.90;;;;;;5046995;28;21025;-38
2022/12/31 02:26:09;;;;;;;0.50;0.40;;;13.00;99.90;;;;;;5048666;28;20454;-34
2022/12/31 02:28:59;;;;;;;0.90;0.50;;;13.00;99.90;;;;;;5048536;28;20400;-37
2022/12/31 02:31:44;;;;;;;0.60;0.50;;;13.10;99.90;;;;;;5048568;28;20431;-38
2022/12/31 02:34:34;;;;;;;0.60;0.40;;;13.10;99.90;;;;;;5047571;28;20419;-39
2022/12/31 02:37:03;;;;;;;0.67;0.50;;;13.20;99.90;;;;;;5048488;28;20905;-39
2022/12/31 02:39:30;;;;;;;0.60;0.40;;;13.10;99.90;;;;;;5047735;28;20412;-36
2022/12/31 02:41:55;;;;;;;0.50;0.30;;;13.20;99.90;;;;;;5048542;28;20687;-40
2022/12/31 02:44:27;;;;;;;0.50;0.40;;;13.20;99.90;;;;;;5047444;28;20795;-36
2022/12/31 02:47:21;;;;;;;1.07;0.40;;;13.30;99.90;;;;;;5048245;28;20213;-40
2022/12/31 02:49:58;;;;;;;0.50;0.30;;;13.30;99.90;;;;;;5047906;28;20447;-39
2022/12/31 02:52:40;;;;;;;0.50;0.30;;;13.30;99.90;;;;;;5048305;28;20415;-39
2022/12/31 02:55:20;;;;;;;0.60;0.30;;;13.40;99.90;;;;;;5047559;28;20400;-39
2022/12/31 02:58:14;;;;;;;0.93;0.33;;;13.40;99.90;;;;;;5047901;28;20404;-38
2022/12/31 03:03:34;;;;;;;0.50;0.30;;;13.40;99.90;;;;;;5047404;28;20439;-38
2022/12/31 03:06:02;;;;;;;0.50;0.30;;;13.40;99.90;;;;;;5048161;28;20487;-40
2022/12/31 03:08:27;;;;;;;0.70;0.40;;;13.50;99.90;;;;;;5047593;28;20409;-38
2022/12/31 03:10:55;;;;;;;0.50;0.30;;;13.50;99.90;;;;;;5048095;28;20778;-41
2022/12/31 03:13:22;;;;;;;0.50;0.40;;;13.50;99.90;;;;;;5047209;28;20177;-39
2022/12/31 03:15:48;;;;;;;0.70;0.50;;;13.50;99.90;;;;;;5047775;28;20428;-37
2022/12/31 03:18:16;;;;;;;3.17;0.40;;;13.50;99.90;;;;;;5048139;28;20450;-39
2022/12/31 03:23:41;;;;;;;0.60;0.30;;;13.50;99.90;;;;;;5046948;28;20459;-39
2022/12/31 03:26:10;;;;;;;0.87;0.70;;;13.50;99.90;;;;;;5047590;28;20511;-41
2022/12/31 03:28:37;;;;;;;0.77;0.40;;;13.50;99.90;;;;;;5047974;28;20412;-40
2022/12/31 03:31:03;;;;;;;0.60;0.37;;;13.50;99.90;;;;;;5047570;28;20442;-38
2022/12/31 03:33:31;;;;;;;0.87;0.47;;;13.60;99.90;;;;;;5050971;28;20419;-36
2022/12/31 03:35:57;;;;;;;1.43;0.40;;;13.50;99.90;;;;;;5051538;28;20923;-40
2022/12/31 03:38:23;;;;;;;0.70;0.30;;;13.50;99.90;;;;;;5051740;28;20427;-37
2022/12/31 03:40:50;;;;;;;0.70;0.40;;;13.50;99.90;;;;;;5051670;28;20170;-40
2022/12/31 03:43:18;;;;;;;1.00;0.30;;;13.60;99.90;;;;;;5050986;28;20420;-39
2022/12/31 03:45:46;;;;;;;2.07;0.37;;;13.60;99.90;;;;;;5048996;28;20566;-38
2022/12/31 03:48:12;;;;;;;0.90;0.50;;;13.60;99.90;;;;;;5050817;28;20962;-37
2022/12/31 03:50:38;;;;;;;1.23;0.70;;;13.60;99.90;;;;;;5051669;28;20630;-40
2022/12/31 03:53:04;;;;;;;0.60;0.40;;;13.60;99.90;;;;;;5050791;28;20733;-39
2022/12/31 03:55:29;;;;;;;0.80;0.30;;;13.60;99.90;;;;;;5050101;28;20178;-40
2022/12/31 03:57:55;;;;;;;0.70;0.40;;;13.60;99.90;;;;;;5051318;28;20779;-38
2022/12/31 04:00:21;;;;;;;0.50;0.33;;;13.70;99.90;;;;;;5051683;28;20185;-38
2022/12/31 04:02:47;;;;;;;1.43;0.50;;;13.70;99.90;;;;;;5051059;28;20182;-40
2022/12/31 04:05:14;;;;;;;0.90;0.50;;;13.80;99.90;;;;;;5050214;28;20930;-40
2022/12/31 04:07:40;;;;;;;2.20;0.40;;;13.80;99.90;;;;;;5049777;28;20501;-36
2022/12/31 04:10:08;;;;;;;0.40;0.30;;;13.90;99.90;;;;;;5050674;28;20412;-41
2022/12/31 04:12:34;;;;;;;0.90;0.37;;;13.90;99.90;;;;;;5051334;28;20416;-41
2022/12/31 04:15:00;;;;;;;1.07;0.40;;;13.90;99.90;;;;;;5048849;28;20546;-40
2022/12/31 04:17:26;;;;;;;0.70;0.40;;;13.90;99.90;;;;;;5050856;28;20734;-38
2022/12/31 04:19:51;;;;;;;0.40;0.40;;;13.90;99.90;;;;;;5050992;28;20186;-40
2022/12/31 04:22:17;;;;;;;1.17;0.50;;;14.00;99.90;;;;;;5049635;28;20174;-37
2022/12/31 04:24:43;;;;;;;0.93;0.40;;;14.00;99.90;;;;;;5049225;28;20178;-40
2022/12/31 04:27:11;;;;;;;0.87;0.40;;;14.00;99.90;;;;;;5050192;28;20197;-38
2022/12/31 04:29:36;;;;;;;0.70;0.50;;;14.10;99.90;;;;;;5050772;28;20420;-37
2022/12/31 04:32:03;;;;;;;0.70;0.50;;;14.10;99.90;;;;;;5050372;28;20713;-38
2022/12/31 04:34:29;;;;;;;0.50;0.33;;;14.10;99.90;;;;;;5050295;28;20178;-41
2022/12/31 04:36:55;;;;;;;0.50;0.40;;;14.10;99.90;;;;;;5050810;28;20451;-38
2022/12/31 04:39:21;;;;;;;0.70;0.40;;;14.10;99.90;;;;;;5050503;28;20264;-39
2022/12/31 04:41:46;;;;;;;0.50;0.40;;;14.10;99.90;;;;;;5050068;28;20268;-42
2022/12/31 04:44:12;;;;;;;0.60;0.40;;;14.10;99.90;;;;;;5049238;28;20251;-41
2022/12/31 04:46:38;;;;;;;0.60;0.40;;;14.10;99.90;;;;;;5050709;28;20202;-40
2022/12/31 04:49:04;;;;;;;1.57;0.60;;;14.10;99.90;;;;;;5050259;28;20220;-40
2022/12/31 04:51:30;;;;;;;1.13;0.50;;;14.10;99.90;;;;;;5050554;28;20416;-38
2022/12/31 04:53:56;;;;;;;0.60;0.40;;;14.10;99.90;;;;;;5050059;28;20231;-38
2022/12/31 04:56:22;;;;;;;1.43;0.37;;;14.20;99.90;;;;;;5050129;28;20467;-38
2022/12/31 04:58:47;;;;;;;0.87;0.40;;;14.20;99.90;;;;;;5050214;28;20420;-37
2022/12/31 05:01:14;;;;;;;2.40;0.47;;;14.20;99.90;;;;;;5048565;28;20193;-39
2022/12/31 05:03:40;;;;;;;1.07;0.30;;;14.20;99.90;;;;;;5049484;28;20412;-39
2022/12/31 05:06:11;;;;;;;0.50;0.40;;;14.30;99.90;;;;;;5049672;28;20550;-37
2022/12/31 05:08:37;;;;;;;1.60;0.50;;;14.20;99.90;;;;;;5050243;28;20408;-38
2022/12/31 05:11:03;;;;;;;1.93;0.60;;;14.30;99.90;;;;;;5048641;28;20503;-41
2022/12/31 05:13:28;;;;;;;0.97;0.50;;;14.30;99.90;;;;;;5048792;28;20189;-38
2022/12/31 05:15:54;;;;;;;0.53;0.40;;;14.30;99.90;;;;;;5050067;28;20896;-40
2022/12/31 05:18:20;;;;;;;0.60;0.40;;;14.40;99.90;;;;;;5049793;28;20273;-35
2022/12/31 05:20:46;;;;;;;0.83;0.40;;;14.40;99.90;;;;;;5049853;28;20178;-38
2022/12/31 05:23:13;;;;;;;0.67;0.30;;;14.40;99.90;;;;;;5048116;28;20490;-36
2022/12/31 05:25:40;;;;;;;0.60;0.40;;;14.40;99.90;;;;;;5049650;28;20464;-35
2022/12/31 05:28:06;;;;;;;0.90;0.40;;;14.40;99.90;;;;;;5049612;28;20411;-39
2022/12/31 05:30:31;;;;;;;1.40;0.50;;;14.40;99.90;;;;;;5048065;28;20432;-39
2022/12/31 05:32:57;;;;;;;0.60;0.37;;;14.40;99.90;;;;;;5049385;28;20190;-38
2022/12/31 05:35:23;;;;;;;2.00;0.50;;;14.50;99.90;;;;;;5049039;28;20178;-37
2022/12/31 05:37:48;;;;;;;1.37;0.50;;;14.50;99.90;;;;;;5049556;28;20548;-34
2022/12/31 05:40:14;;;;;;;1.20;0.50;;;14.50;99.90;;;;;;5049095;28;20868;-38
2022/12/31 05:42:40;;;;;;;1.37;0.53;;;14.60;99.90;;;;;;5049360;28;20178;-41
2022/12/31 05:45:06;;;;;;;0.70;0.30;;;14.60;99.90;;;;;;5047597;28;20231;-38
2022/12/31 05:47:31;;;;;;;0.90;0.40;;;14.60;99.90;;;;;;5048968;28;20217;-37
2022/12/31 05:49:57;;;;;;;0.70;0.50;;;14.60;99.90;;;;;;5049574;28;20446;-38
2022/12/31 05:52:23;;;;;;;2.00;0.70;;;14.60;99.90;;;;;;5048839;28;20170;-37
2022/12/31 05:54:48;;;;;;;1.10;0.53;;;14.60;99.90;;;;;;5047892;28;20262;-38
2022/12/31 05:57:14;;;;;;;2.43;0.43;;;14.70;99.90;;;;;;5048617;28;20461;-40
2022/12/31 05:59:40;;;;;;;0.80;0.50;;;14.70;99.90;;;;;;5043557;28;20189;-40
2022/12/31 06:02:06;;;;;;;0.60;0.30;;;14.70;99.90;;;;;;5049034;28;20182;-39
2022/12/31 06:04:31;;;;;;;1.07;0.50;;;14.70;99.90;;;;;;5047999;28;20352;-39
2022/12/31 06:06:57;;;;;;;1.50;0.50;;;14.70;99.90;;;;;;5048915;28;20276;-39
2022/12/31 06:09:22;;;;;;;0.80;0.40;;;14.80;99.90;;;;;;5048725;28;20543;-40
2022/12/31 06:11:48;;;;;;;2.03;0.50;;;14.80;99.90;;;;;;5048603;28;20190;-37
2022/12/31 06:14:14;;;;;;;2.10;0.70;;;14.80;99.90;;;;;;5047855;28;20265;-39
2022/12/31 06:16:40;;;;;;;1.87;0.47;;;14.80;99.90;;;;;;5046878;28;20339;-41
2022/12/31 06:19:06;;;;;;;1.87;0.87;;;14.80;99.90;;;;;;5048416;28;20520;-41
2022/12/31 06:21:32;;;;;;;2.83;0.60;;;14.80;99.90;;;;;;5047585;28;20919;-39
2022/12/31 06:23:58;;;;;;;1.47;0.60;;;14.90;99.90;;;;;;5048080;28;20423;-41
2022/12/31 06:26:24;;;;;;;0.80;0.47;;;14.80;99.90;;;;;;5047993;28;20208;-38
2022/12/31 06:28:50;;;;;;;0.80;0.50;;;14.90;99.90;;;;;;5048785;28;20185;-35
2022/12/31 06:31:16;;;;;;;1.80;0.50;;;14.90;99.90;;;;;;5048312;28;20416;-37
2022/12/31 06:33:41;;;;;;;1.37;0.60;;;14.90;99.90;;;;;;5047920;28;20185;-38
2022/12/31 06:36:11;;;;;;;2.03;0.70;;;14.90;99.90;;;;;;5047238;28;20181;-41
2022/12/31 06:38:39;;;;;;;0.90;0.60;;;14.90;99.90;;;;;;5048207;28;20404;-36
2022/12/31 06:41:13;;;;;;;0.80;0.53;;;14.90;99.90;;;;;;5048203;28;20486;-41
2022/12/31 06:43:39;;;;;;;2.73;0.83;;;14.90;99.90;;;;;;5047192;28;20973;-36
2022/12/31 06:46:10;;;;;;;3.13;0.70;;;14.90;99.90;;;;;;5048521;28;20459;-41
2022/12/31 06:48:37;;;;;;;1.73;0.73;;;15.00;99.90;;;;;;5046783;28;20424;-37
2022/12/31 06:51:11;;;;;;;1.07;0.50;;;14.90;99.90;;;;;;5048208;28;20420;-40
2022/12/31 06:53:37;;;;;;;2.07;0.60;;;14.90;99.90;;;;;;5044341;28;20420;-36
2022/12/31 06:56:08;;;;;;;1.17;0.63;;;14.90;99.90;;;;;;5031051;28;20475;-38
2022/12/31 06:58:34;;;;;;;0.70;0.43;;;15.00;99.90;;;;;;5028457;28;20237;-37
2022/12/31 07:01:19;;;;;;;0.80;0.60;;;15.00;99.90;;;;;;5027783;28;20899;-37
2022/12/31 07:04:02;;;;;;;2.00;0.70;;;15.00;99.90;;;;;;5027557;28;20421;-39
2022/12/31 07:06:47;;;;;;;1.10;0.63;;;15.00;99.90;;;;;;5027655;28;20463;-37
2022/12/31 07:09:20;;;;;;;1.67;0.60;;;15.00;99.90;;;;;;5028268;28;20417;-37
2022/12/31 07:11:52;;;;;;;1.37;0.70;;;15.00;99.90;;;;;;5038709;28;20531;-41
2022/12/31 07:14:34;;;;;;;0.90;0.70;;;15.00;99.90;;;;;;5044793;28;20420;-39
2022/12/31 07:17:18;;;;;;;1.10;0.60;;;15.00;99.90;;;;;;5042979;28;20474;-40
2022/12/31 07:20:04;;;;;;;2.20;0.60;;;15.00;99.90;;;;;;5045897;28;20423;-41
2022/12/31 07:22:29;;;;;;;2.00;0.70;;;15.00;99.90;;;;;;5043563;28;20439;-39
2022/12/31 07:24:55;;;;;;;1.30;0.73;;;15.00;99.90;;;;;;5046250;28;20428;-40
2022/12/31 07:27:33;;;;;;;2.20;0.90;;;15.00;99.90;;;;;;5040909;28;20325;-35
2022/12/31 07:30:10;;;;;;;3.17;0.90;;;15.10;99.90;;;;;;5042639;28;20443;-41
2022/12/31 07:33:13;;;;;;;1.30;0.80;;;15.10;99.90;;;;;;5044165;28;20513;-40
2022/12/31 07:36:05;;;;;;;10.03;1.00;;;15.10;99.90;;;;;;5047774;28;20416;-39
2022/12/31 07:38:42;;;;;;;1.77;0.70;;;15.10;99.90;;;;;;5047538;28;20447;-37
2022/12/31 07:41:27;;;;;;;2.23;0.97;;;15.20;99.90;;;;;;5047901;28;20444;-40
2022/12/31 07:44:02;;;;;;;3.97;0.83;;;15.10;99.90;;;;;;5041124;28;20423;-39
2022/12/31 07:46:58;;;;;;;2.80;1.10;;;15.10;99.90;;;;;;5036564;28;20459;-38
2022/12/31 07:49:26;;;;;;;1.27;0.73;;;15.20;99.90;;;;;;5027019;28;20432;-36
2022/12/31 07:51:53;;;;;;;1.47;0.83;;;15.20;99.90;;;;;;5006772;28;20427;-35
2022/12/31 07:54:19;;;;;;;1.17;0.70;;;15.20;99.90;;;;;;5046353;28;20420;-41
2022/12/31 07:56:45;;;;;;;0.90;0.70;;;15.20;99.90;;;;;;5046749;28;20419;-40
2022/12/31 07:59:32;;;;;;;1.40;0.60;;;15.20;99.90;;;;;;5047116;28;20503;-38
2022/12/31 08:02:19;;;;;;;2.47;0.80;;;15.30;99.90;;;;;;5044008;28;20953;-40
2022/12/31 08:04:52;;;;;;;2.40;0.80;;;15.20;99.90;;;;;;5037295;28;21430;-37
2022/12/31 08:07:35;;;;;;;1.97;0.70;;;15.20;99.90;;;;;;5036024;28;20458;-39
2022/12/31 08:10:26;;;;;;;1.17;0.70;;;15.20;99.90;;;;;;5035518;28;20496;-35
2022/12/31 08:12:59;;;;;;;3.30;0.83;;;15.30;99.90;;;;;;5025105;28;20782;-41
2022/12/31 08:15:25;;;;;;;3.80;0.83;;;15.20;99.90;;;;;;5040899;28;20412;-40
2022/12/31 08:17:51;;;;;;;1.37;0.67;;;15.30;99.90;;;;;;5046924;28;20425;-39
2022/12/31 08:20:17;;;;;;;1.37;0.60;;;15.30;99.90;;;;;;5047286;28;20420;-41
2022/12/31 08:23:20;;;;;;;1.97;0.73;;;15.30;99.90;;;;;;5038212;28;20920;-38
2022/12/31 08:26:07;;;;;;;3.20;0.90;;;15.30;99.90;;;;;;5040317;28;20458;-38
2022/12/31 08:28:55;;;;;;;1.60;0.80;;;15.30;99.90;;;;;;5048028;28;20416;-38
2022/12/31 08:31:52;;;;;;;2.03;0.93;;;15.40;99.90;;;;;;5049160;28;20408;-37
2022/12/31 08:34:29;;;;;;;1.60;0.70;;;15.40;99.90;;;;;;5050284;28;20706;-40
2022/12/31 08:37:07;;;;;;;1.10;0.80;;;15.40;99.90;;;;;;5050319;28;20443;-40
2022/12/31 08:39:48;;;;;;;1.20;0.77;;;15.40;99.90;;;;;;5050819;28;20416;-40
2022/12/31 08:42:48;;;;;;;3.50;0.80;;;15.50;99.90;;;;;;5048855;28;20403;-40
2022/12/31 08:45:36;;;;;;;2.60;1.03;;;15.40;99.90;;;;;;5038887;28;20805;-37
2022/12/31 08:48:37;;;;;;;5.17;1.00;;;15.50;99.90;;;;;;5037766;28;20518;-40
2022/12/31 08:51:03;;;;;;;2.63;1.30;;;15.50;99.90;;;;;;5035031;28;20425;-40
2022/12/31 08:53:30;;;;;;;1.33;0.70;;;15.50;99.90;;;;;;5027622;28;20755;-38
2022/12/31 08:56:06;;;;;;;1.37;0.77;;;15.50;99.90;;;;;;5030363;28;20417;-40
2022/12/31 08:58:55;;;;;;;1.80;1.00;;;15.50;99.90;;;;;;5035283;28;20412;-38
2022/12/31 09:01:26;;;;;;;1.80;0.73;;;15.60;99.90;;;;;;5038158;28;20485;-41
2022/12/31 09:04:19;;;;;;;2.73;0.80;;;15.60;99.90;;;;;;5032501;28;20421;-39
2022/12/31 09:07:00;;;;;;;2.23;0.73;;;15.60;99.90;;;;;;5029952;28;20826;-37
2022/12/31 09:09:46;;;;;;;4.27;0.83;;;15.60;99.90;;;;;;5028675;28;20993;-38
2022/12/31 09:12:31;;;;;;;0.80;0.70;;;15.60;99.90;;;;;;5030121;28;20475;-40
2022/12/31 09:15:03;;;;;;;1.40;0.97;;;15.60;99.90;;;;;;5029464;28;20425;-39
2022/12/31 09:17:37;;;;;;;1.40;0.80;;;15.60;99.90;;;;;;5030031;28;20429;-35
2022/12/31 09:20:04;;;;;;;1.93;0.73;;;15.60;99.90;;;;;;5037442;28;20435;-39
2022/12/31 09:22:31;;;;;;;2.00;0.70;;;15.70;99.90;;;;;;5047026;28;20429;-39
2022/12/31 09:24:57;;;;;;;0.97;0.70;;;15.60;99.90;;;;;;5043581;28;20970;-37
2022/12/31 09:27:25;;;;;;;0.73;0.50;;;15.70;99.90;;;;;;5041402;28;20476;-39
2022/12/31 09:30:11;;;;;;;1.77;0.73;;;15.70;99.90;;;;;;5041698;28;20416;-41
2022/12/31 09:32:37;;;;;;;1.57;0.90;;;15.70;99.90;;;;;;5039306;28;20486;-38
2022/12/31 09:35:20;;;;;;;2.47;0.80;;;15.70;99.90;;;;;;5029116;28;20429;-38
2022/12/31 09:37:48;;;;;;;2.60;0.83;;;15.70;99.90;;;;;;5030030;28;20428;-40
2022/12/31 09:40:33;;;;;;;3.90;1.00;;;15.70;99.90;;;;;;5029488;28;20495;-38
2022/12/31 09:43:15;;;;;;;1.80;0.97;;;15.70;99.90;;;;;;5029083;28;20803;-37
2022/12/31 09:45:59;;;;;;;1.07;0.90;;;15.70;99.90;;;;;;5031507;28;20777;-41
2022/12/31 09:48:28;;;;;;;2.83;0.90;;;15.70;99.90;;;;;;5048849;28;20842;-35
2022/12/31 09:51:09;;;;;;;1.27;0.80;;;15.70;99.90;;;;;;5049624;28;20455;-36
2022/12/31 09:53:46;;;;;;;3.00;1.00;;;15.70;99.90;;;;;;5038924;28;20435;-41
2022/12/31 09:56:27;;;;;;;4.47;1.00;;;15.70;99.90;;;;;;5045854;28;20442;-35
2022/12/31 09:59:05;;;;;;;1.27;0.80;;;15.80;99.90;;;;;;5027489;28;20448;-38
2022/12/31 10:01:49;;;;;;;2.27;1.20;;;15.80;99.90;;;;;;5036584;28;20966;-39
2022/12/31 10:04:50;;;;;;;2.80;1.17;;;15.80;99.90;;;;;;5038566;28;20444;-40
2022/12/31 10:07:35;;;;;;;1.83;0.90;;;15.80;99.90;;;;;;5040869;28;20806;-40
2022/12/31 10:10:14;;;;;;;2.47;1.10;;;15.80;99.90;;;;;;5029240;28;20417;-37
2022/12/31 10:13:04;;;;;;;3.90;1.17;;;15.80;99.90;;;;;;5030553;28;20417;-40
2022/12/31 10:15:47;;;;;;;4.13;1.47;;;15.80;99.90;;;;;;5032125;28;20486;-36
2022/12/31 10:18:40;;;;;;;1.63;0.90;;;15.80;99.90;;;;;;5045817;28;20420;-41
2022/12/31 10:21:24;;;;;;;2.03;0.90;;;15.80;99.90;;;;;;5042589;28;20506;-37
2022/12/31 10:24:20;;;;;;;2.77;1.00;;;15.80;99.90;;;;;;5049712;28;20427;-41
2022/12/31 10:27:05;;;;;;;2.73;1.03;;;15.80;99.90;;;;;;5047446;28;20479;-39
2022/12/31 10:29:41;;;;;;;3.27;0.70;;;15.80;99.90;;;;;;5041211;28;20424;-37
2022/12/31 10:32:13;;;;;;;1.73;0.83;;;15.80;99.90;;;;;;5034712;28;20512;-40
2022/12/31 10:35:14;;;;;;;1.67;1.10;;;15.80;99.90;;;;;;5029302;28;20426;-40
2022/12/31 10:37:56;;;;;;;2.70;1.07;;;15.90;99.90;;;;;;5029762;28;21127;-40
2022/12/31 10:40:33;;;;;;;1.70;0.83;;;15.90;99.90;;;;;;5049478;28;20408;-40
2022/12/31 10:43:44;;;;;;;2.60;1.20;;;16.00;99.90;;;;;;5049209;28;20423;-39
2022/12/31 10:46:18;;;;;;;1.93;0.93;;;16.00;99.90;;;;;;5046502;28;20467;-38
2022/12/31 10:49:08;;;;;;;3.63;1.03;;;16.00;99.90;;;;;;5036812;28;20427;-39
2022/12/31 10:52:31;;;;;;;2.67;1.00;;;16.00;99.90;;;;;;5039168;28;20415;-41
2022/12/31 10:55:24;;;;;;;2.13;1.13;;;16.00;99.90;;;;;;4972632;28;20426;-37
2022/12/31 10:58:11;;;;;;;2.20;1.20;;;16.00;99.90;;;;;;5029675;28;20940;-38
2022/12/31 11:00:46;;;;;;;4.07;1.30;;;16.00;99.90;;;;;;5029384;28;20433;-40
2022/12/31 11:03:36;;;;;;;2.37;1.10;;;16.00;99.90;;;;;;5029084;28;20436;-37
2022/12/31 11:06:22;;;;;;;1.67;0.90;;;16.00;99.90;;;;;;5029250;28;21214;-38
2022/12/31 11:09:05;;;;;;;1.53;1.17;;;16.10;99.90;;;;;;5029606;28;20424;-35
2022/12/31 11:12:25;;;;;;;2.10;0.90;;;16.00;99.90;;;;;;5035405;28;20415;-40
2022/12/31 11:15:28;;;;;;;4.03;1.50;;;16.10;99.90;;;;;;5009268;28;20835;-40
2022/12/31 11:18:01;;;;;;;2.20;1.03;;;16.10;99.90;;;;;;5029326;28;20519;-35
2022/12/31 11:20:49;;;;;;;2.80;1.10;;;16.20;99.90;;;;;;5032424;28;20448;-38
2022/12/31 11:23:24;;;;;;;3.70;1.17;;;16.20;99.90;;;;;;5044123;28;20535;-39
2022/12/31 11:26:32;;;;;;;3.43;1.10;;;16.30;99.90;;;;;;5027923;28;20515;-39
2022/12/31 11:29:27;;;;;;;2.63;1.00;;;16.30;99.90;;;;;;5023362;28;20440;-38
2022/12/31 11:31:53;;;;;;;2.40;0.83;;;16.30;99.90;;;;;;5038733;28;20838;-40
2022/12/31 11:34:37;;;;;;;3.00;1.20;;;16.30;99.90;;;;;;5027173;28;20441;-39
2022/12/31 11:37:26;;;;;;;2.93;1.13;;;16.30;99.90;;;;;;5027670;28;20201;-37
2022/12/31 11:40:19;;;;;;;3.10;1.47;;;16.20;99.90;;;;;;5027611;28;20437;-38
2022/12/31 11:42:58;;;;;;;1.63;1.00;;;16.20;99.90;;;;;;5027789;28;20429;-41
2022/12/31 11:45:32;;;;;;;2.83;0.80;;;16.20;99.90;;;;;;5027172;28;20564;-38
2022/12/31 11:48:30;;;;;;;2.63;1.20;;;16.20;99.90;;;;;;5028150;28;20891;-38
2022/12/31 11:51:26;;;;;;;4.57;1.10;;;16.10;99.90;;;;;;5027956;28;20415;-37
2022/12/31 11:54:34;;;;;;;2.97;0.90;;;16.20;99.90;;;;;;5029068;28;20421;-36
2022/12/31 11:57:16;;;;;;;3.73;1.70;;;16.10;99.90;;;;;;5048431;28;20617;-35
2022/12/31 11:59:41;;;;;;;2.83;0.90;;;16.10;99.90;;;;;;5050799;28;20710;-36
2022/12/31 12:02:33;;;;;;;3.10;1.30;;;16.20;99.90;;;;;;5051687;28;21077;-41
2022/12/31 12:05:02;;;;;;;1.80;0.97;;;16.10;99.90;;;;;;5047847;28;20185;-41
2022/12/31 12:07:30;;;;;;;1.40;0.90;;;16.10;99.90;;;;;;5049056;28;20941;-38
2022/12/31 12:10:00;;;;;;;1.80;1.07;;;16.10;99.90;;;;;;5046439;28;20428;-40
2022/12/31 12:12:36;;;;;;;2.20;0.80;;;16.10;99.90;;;;;;5050519;28;20420;-38
2022/12/31 12:15:08;;;;;;;2.23;1.40;;;16.10;99.90;;;;;;5039060;28;20420;-38
2022/12/31 12:17:34;;;;;;;3.70;1.20;;;16.10;99.90;;;;;;5041753;28;20433;-40
2022/12/31 12:20:14;;;;;;;3.60;1.27;;;16.10;99.90;;;;;;5036711;28;20506;-38
2022/12/31 12:22:49;;;;;;;4.70;1.20;;;16.10;99.90;;;;;;5041684;28;20428;-38
2022/12/31 12:25:20;;;;;;;2.60;1.30;;;16.10;99.90;;;;;;5040848;28;20415;-38
2022/12/31 12:27:46;;;;;;;2.80;1.13;;;16.00;99.90;;;;;;5037547;28;20835;-40
2022/12/31 12:30:18;;;;;;;1.90;1.20;;;16.00;99.90;;;;;;5035673;28;20421;-38
2022/12/31 12:32:55;;;;;;;1.97;1.07;;;16.00;99.90;;;;;;5030805;28;20657;-38
2022/12/31 12:35:33;;;;;;;4.30;1.30;;;15.90;99.90;;;;;;5030619;28;20671;-36
2022/12/31 12:38:04;;;;;;;2.20;1.27;;;15.90;99.90;;;;;;5042000;28;20497;-39
2022/12/31 12:40:32;;;;;;;3.13;1.10;;;15.90;99.90;;;;;;5043863;28;20922;-35
2022/12/31 12:42:57;;;;;;;5.30;1.23;;;15.90;99.90;;;;;;5050104;28;20503;-40
2022/12/31 12:45:26;;;;;;;3.63;1.40;;;15.80;99.90;;;;;;5050450;28;20507;-39
2022/12/31 12:47:59;;;;;;;4.10;1.70;;;15.80;99.90;;;;;;5048671;28;20218;-38
2022/12/31 12:50:37;;;;;;;1.73;1.20;;;15.70;99.90;;;;;;5050607;28;20440;-36
2022/12/31 12:53:27;;;;;;;1.90;1.20;;;15.70;99.90;;;;;;5049678;28;20411;-39
2022/12/31 12:56:07;;;;;;;1.43;1.10;;;15.60;99.90;;;;;;5049359;28;20411;-40
2022/12/31 12:58:54;;;;;;;2.57;1.20;;;15.60;99.90;;;;;;5050069;28;20429;-38
2022/12/31 13:01:56;;;;;;;2.70;1.70;;;15.60;99.90;;;;;;5047761;28;20443;-37
2022/12/31 13:04:25;;;;;;;1.30;1.20;;;15.50;99.90;;;;;;5045879;28;20504;-36
2022/12/31 13:07:30;;;;;;;3.57;1.30;;;15.50;99.90;;;;;;5049830;28;20456;-38
2022/12/31 13:10:11;;;;;;;6.07;2.30;;;15.50;99.90;;;;;;5049936;28;20508;-41
2022/12/31 13:13:14;;;;;;;6.07;1.40;;;15.40;99.90;;;;;;5049420;28;20759;-38
2022/12/31 13:15:47;;;;;;;1.63;1.10;;;15.50;99.90;;;;;;5049688;28;20412;-40
2022/12/31 13:18:34;;;;;;;5.10;1.60;;;15.50;99.90;;;;;;5032402;28;20468;-35
2022/12/31 13:21:11;;;;;;;5.00;1.50;;;15.50;99.90;;;;;;5036504;28;20490;-35
2022/12/31 13:23:50;;;;;;;5.73;1.27;;;15.60;99.90;;;;;;5038354;28;20432;-40
2022/12/31 13:26:20;;;;;;;2.07;1.47;;;15.60;99.90;;;;;;5041032;28;20502;-38
2022/12/31 13:28:49;;;;;;;4.30;1.43;;;15.60;99.90;;;;;;5034880;28;20416;-37
2022/12/31 13:31:20;;;;;;;2.93;1.17;;;15.60;99.90;;;;;;5051651;28;20438;-36